Time;durP1;ratioP1;P1;durP2;ratioP2;P2;SDS_P1;SDS_P2;PMS_P1;PMS_P2;Temp;Humidity;BMP_temperature;BMP_pressure;BME280_temperature;BME280_humidity;BME280_pressure;Samples;Min_cycle;Max_cycle;Signal;HPM_P1;HPM_P2
2020/12/15 08:20:49;;;;;;;36.03;19.98;;;;;;;1.38;86.66;100777.88;1770633;80;21331;-38
2020/12/15 08:23:37;;;;;;;47.90;23.90;;;;;;;1.40;86.74;100776.27;1800380;79;21154;-40
2020/12/15 08:30:23;;;;;;;38.92;21.52;;;;;;;1.39;86.50;100774.88;1799744;78;22111;-37
2020/12/15 08:41:07;;;;;;;41.75;21.90;;;;;;;1.28;86.22;100779.18;1701770;76;21638;-36
2020/12/15 08:44:40;;;;;;;42.13;21.42;;;;;;;1.22;86.25;100778.91;1652700;84;21335;-38
2020/12/15 08:48:03;;;;;;;45.38;23.00;;;;;;;1.22;86.55;100782.77;1636555;85;21206;-37
2020/12/15 08:51:19;;;;;;;50.58;23.95;;;;;;;1.23;86.47;100783.66;1632984;85;21186;-36
2020/12/15 08:54:24;;;;;;;46.80;23.32;;;;;;;1.24;86.58;100791.45;1616628;83;21256;-36
2020/12/15 08:57:06;;;;;;;46.53;22.75;;;;;;;1.27;86.88;100798.42;1667130;84;21173;-37
2020/12/15 08:59:45;;;;;;;47.35;23.25;;;;;;;1.31;86.75;100788.33;1683630;84;21128;-38
2020/12/15 09:02:26;;;;;;;55.12;25.52;;;;;;;1.32;86.64;100789.20;1701750;81;21547;-37
2020/12/15 09:05:31;;;;;;;55.28;25.20;;;;;;;1.32;86.58;100791.78;1735693;81;21148;-38
2020/12/15 09:08:36;;;;;;;53.28;26.05;;;;;;;1.32;86.43;100794.36;1714826;81;21200;-37
2020/12/15 09:12:34;;;;;;;57.30;25.17;;;;;;;1.30;86.49;100797.28;1690464;82;21869;-37
2020/12/15 09:19:30;;;;;;;51.20;23.98;;;;;;;1.31;86.54;100790.02;1713154;79;21225;31
2020/12/15 09:23:18;;;;;;;55.48;25.20;;;;;;;1.31;86.50;100784.45;1630750;85;21188;-38
2020/12/15 09:26:38;;;;;;;48.95;23.02;;;;;;;1.31;86.37;100783.58;1660239;85;21897;-38
2020/12/15 09:30:12;;;;;;;51.60;22.30;;;;;;;1.34;86.40;100785.02;1602037;87;21172;-38
2020/12/15 09:37:30;;;;;;;41.27;20.30;;;;;;;1.39;85.87;100780.05;1657557;80;21254;31
2020/12/15 09:52:30;;;;;;;41.42;20.55;;;;;;;1.82;84.91;100765.63;1672507;84;21170;-38
2020/12/15 09:55:44;;;;;;;41.80;21.15;;;;;;;1.93;84.26;100757.47;1589478;89;21434;-36
2020/12/15 10:30:54;;;;;;;45.38;25.72;;;;;;;3.56;77.27;100742.23;1818873;77;22907;-38
2020/12/15 10:33:25;;;;;;;48.50;24.52;;;;;;;3.35;77.80;100744.51;1745571;81;21331;-34
2020/12/15 10:35:56;;;;;;;45.78;23.83;;;;;;;3.22;78.13;100746.19;1740950;81;21178;-35
2020/12/15 10:38:24;;;;;;;42.80;22.73;;;;;;;3.11;78.63;100749.67;1697354;81;21181;-38
2020/12/15 10:40:53;;;;;;;39.63;20.48;;;;;;;3.07;79.03;100750.38;1722393;81;21174;-39
2020/12/15 10:43:20;;;;;;;41.77;21.25;;;;;;;3.09;79.27;100755.63;1720390;81;21178;-38
2020/12/15 10:45:49;;;;;;;42.80;22.10;;;;;;;3.11;79.40;100757.84;1748382;80;21181;-39
2020/12/15 10:48:17;;;;;;;39.27;20.85;;;;;;;3.10;78.40;100756.09;1768711;80;21159;-38
2020/12/15 10:50:46;;;;;;;40.15;22.40;;;;;;;3.00;78.22;100757.84;1769403;80;21172;-38
2020/12/15 10:53:15;;;;;;;41.85;21.57;;;;;;;2.98;78.45;100755.63;1721359;82;21181;-39
2020/12/15 10:55:43;;;;;;;39.73;21.30;;;;;;;3.02;78.61;100761.39;1725502;80;21168;-38
2020/12/15 10:58:12;;;;;;;45.38;21.93;;;;;;;3.05;78.38;100762.78;1748908;81;22086;-39
2020/12/15 11:00:41;;;;;;;42.65;21.62;;;;;;;3.00;78.15;100757.44;1728735;81;21126;-39
2020/12/15 11:03:11;;;;;;;47.85;24.92;;;;;;;2.98;78.29;100759.50;1724247;81;22187;-38
2020/12/15 11:05:41;;;;;;;50.83;25.05;;;;;;;3.00;78.55;100755.27;1772719;79;21615;-38
2020/12/15 11:08:11;;;;;;;45.48;24.72;;;;;;;3.13;78.93;100747.13;1720219;81;21240;-35
2020/12/15 11:10:40;;;;;;;45.23;24.23;;;;;;;3.29;78.66;100748.17;1683230;82;22112;-34
2020/12/15 11:13:12;;;;;;;40.33;22.52;;;;;;;3.39;78.23;100742.92;1662420;82;21875;-38
2020/12/15 11:15:42;;;;;;;38.58;21.48;;;;;;;3.54;78.31;100746.07;1703360;82;21525;-38
2020/12/15 11:18:13;;;;;;;42.53;22.70;;;;;;;3.64;77.36;100741.66;1681370;82;21425;-38
2020/12/15 11:23:11;;;;;;;43.17;23.50;;;;;;;3.51;76.97;100745.95;1778946;78;23079;-39
2020/12/15 11:25:52;;;;;;;43.78;23.62;;;;;;;3.42;77.34;100746.90;1773682;78;21191;-36
2020/12/15 11:28:41;;;;;;;36.75;19.95;;;;;;;3.37;77.05;100758.81;1730208;80;21166;-38
2020/12/15 11:31:26;;;;;;;40.83;21.00;;;;;;;3.24;76.98;100757.88;1779810;78;21194;-44
2020/12/15 11:34:23;;;;;;;42.43;22.27;;;;;;;3.13;77.51;100760.06;1731933;80;21146;-37
2020/12/15 11:37:46;;;;;;;33.75;19.20;;;;;;;3.07;77.93;100754.66;1735592;80;21340;-38
2020/12/15 11:40:32;;;;;;;43.45;23.47;;;;;;;3.02;77.87;100745.47;1743909;80;21157;-38
2020/12/15 11:43:03;;;;;;;46.80;23.52;;;;;;;2.89;78.21;100748.39;1729876;80;21136;-39
2020/12/15 11:45:41;;;;;;;45.15;22.82;;;;;;;2.84;78.62;100755.99;1732986;80;22077;-37
2020/12/15 11:48:17;;;;;;;48.90;25.45;;;;;;;2.80;78.74;100758.39;1736564;80;21333;-35
2020/12/15 11:50:51;;;;;;;46.08;23.65;;;;;;;2.76;79.17;100750.92;1731376;80;21605;-35
2020/12/15 11:53:38;;;;;;;47.80;25.00;;;;;;;2.80;79.46;100750.64;1737304;80;21208;-35
2020/12/15 11:56:23;;;;;;;47.53;24.60;;;;;;;2.91;79.77;100749.35;1734819;80;21159;-35
2020/12/15 11:59:04;;;;;;;43.65;23.32;;;;;;;2.98;79.40;100747.88;1732339;80;21196;-36
2020/12/15 12:01:33;;;;;;;50.23;22.65;;;;;;;2.99;79.35;100754.39;1710710;80;21504;-38
2020/12/15 12:04:08;;;;;;;49.90;25.27;;;;;;;2.94;78.90;100757.20;1727684;80;21576;-35
2020/12/15 12:06:41;;;;;;;48.70;24.98;;;;;;;2.84;78.82;100758.96;1726738;81;21134;-35
2020/12/15 12:09:12;;;;;;;50.05;25.72;;;;;;;2.71;79.23;100765.78;1759451;80;21159;-36
2020/12/15 12:11:41;;;;;;;52.15;26.73;;;;;;;2.61;79.44;100770.61;1706157;80;21192;-37
2020/12/15 12:14:10;;;;;;;45.67;24.98;;;;;;;2.52;79.72;100763.77;1729335;80;21912;-37
2020/12/15 12:16:38;;;;;;;44.25;23.40;;;;;;;2.44;79.98;100771.64;1723468;80;21164;-39
2020/12/15 12:19:09;;;;;;;50.73;25.75;;;;;;;2.40;80.12;100769.73;1725792;80;21605;-38
2020/12/15 12:21:39;;;;;;;51.98;25.48;;;;;;;2.35;80.27;100769.55;1723825;80;21365;-40
2020/12/15 12:24:25;;;;;;;52.10;26.68;;;;;;;2.30;80.29;100767.19;1686020;82;21495;-34
2020/12/15 12:27:00;;;;;;;54.80;27.77;;;;;;;2.23;80.51;100775.51;1679308;83;21315;-34
2020/12/15 12:29:57;;;;;;;49.45;26.30;;;;;;;2.17;80.85;100771.80;1751693;80;21173;-35
2020/12/15 12:32:52;;;;;;;64.53;30.88;;;;;;;2.16;81.18;100786.82;1718373;80;21577;-35
2020/12/15 12:35:37;;;;;;;54.42;29.80;;;;;;;2.16;81.34;100792.86;1709480;80;21139;-35
2020/12/15 12:38:23;;;;;;;58.78;30.80;;;;;;;2.13;81.45;100800.46;1752444;80;21505;-35
2020/12/15 12:40:51;;;;;;;67.32;30.95;;;;;;;2.11;81.59;100803.41;1748617;80;21173;-35
2020/12/15 12:43:19;;;;;;;67.82;33.45;;;;;;;2.07;81.65;100804.95;1751046;80;21512;-35
2020/12/15 12:45:49;;;;;;;74.17;37.73;;;;;;;2.04;81.81;100805.26;1688334;80;21355;-35
2020/12/15 12:48:17;;;;;;;98.60;42.75;;;;;;;2.00;82.01;100809.39;1747237;80;21204;-35
2020/12/15 12:50:45;;;;;;;89.15;42.38;;;;;;;1.98;82.18;100809.75;1688859;83;21164;-35
2020/12/15 12:53:13;;;;;;;107.12;44.23;;;;;;;1.96;82.27;100813.06;1742092;80;21156;-35
2020/12/15 12:55:41;;;;;;;107.27;45.12;;;;;;;1.92;82.42;100812.48;1756465;79;21195;-38
2020/12/15 12:58:14;;;;;;;109.22;46.10;;;;;;;1.91;82.57;100813.27;1721347;80;21191;-37
2020/12/15 13:00:45;;;;;;;112.68;47.93;;;;;;;1.89;82.71;100815.80;1724774;80;21176;-34
2020/12/15 13:03:13;;;;;;;110.83;48.08;;;;;;;1.87;82.92;100813.56;1724388;80;21169;-34
2020/12/15 13:05:43;;;;;;;115.88;48.05;;;;;;;1.88;83.07;100814.03;1724339;82;21176;-35
2020/12/15 13:08:10;;;;;;;107.65;45.05;;;;;;;1.89;83.16;100813.63;1752675;80;21154;-34
2020/12/15 13:10:39;;;;;;;108.67;48.30;;;;;;;1.87;83.22;100810.98;1714695;80;21629;-34
2020/12/15 13:13:07;;;;;;;129.38;53.00;;;;;;;1.86;83.36;100820.84;1739286;80;21518;-35
2020/12/15 13:15:35;;;;;;;121.50;49.67;;;;;;;1.85;83.44;100818.64;1755348;79;21179;-34
2020/12/15 13:18:03;;;;;;;135.07;57.93;;;;;;;1.84;83.52;100816.87;1739851;81;21618;-38
2020/12/15 13:20:31;;;;;;;118.40;51.02;;;;;;;1.84;83.67;100817.29;1690648;82;21783;-34
2020/12/15 13:23:00;;;;;;;116.97;50.50;;;;;;;1.84;83.78;100814.30;1680969;81;21321;-38
2020/12/15 13:25:27;;;;;;;126.45;51.58;;;;;;;1.83;83.90;100821.57;1724944;81;21199;-35
2020/12/15 13:27:56;;;;;;;119.00;52.33;;;;;;;1.82;83.93;100824.09;1729208;80;21168;-35
2020/12/15 13:30:24;;;;;;;120.67;49.65;;;;;;;1.77;83.91;100820.43;1779265;80;21165;-38
2020/12/15 13:32:52;;;;;;;108.72;46.55;;;;;;;1.72;84.09;100819.34;1716380;81;21187;-38
2020/12/15 13:35:21;;;;;;;106.03;46.92;;;;;;;1.69;84.07;100821.39;1760684;79;21951;-35
2020/12/15 13:37:49;;;;;;;110.17;45.58;;;;;;;1.66;83.99;100826.81;1783236;80;21198;-38
2020/12/15 13:40:16;;;;;;;114.25;46.83;;;;;;;1.60;83.94;100832.17;1758261;79;21289;-35
2020/12/15 13:42:44;;;;;;;126.00;47.23;;;;;;;1.57;84.03;100826.89;1757862;80;21698;-40
2020/12/15 13:45:13;;;;;;;127.55;52.30;;;;;;;1.53;84.18;100831.43;1778998;80;21160;-36
2020/12/15 13:47:41;;;;;;;126.72;49.33;;;;;;;1.53;84.34;100826.27;1779709;80;21201;-34
2020/12/15 13:50:09;;;;;;;138.50;50.52;;;;;;;1.53;84.44;100835.30;1744645;80;21204;-37
2020/12/15 13:52:38;;;;;;;147.65;52.58;;;;;;;1.53;84.40;100837.00;1754886;80;21203;-34
2020/12/15 13:55:06;;;;;;;157.05;56.25;;;;;;;1.51;84.44;100845.09;1775839;80;21193;-35
2020/12/15 13:57:35;;;;;;;155.63;56.18;;;;;;;1.49;84.48;100846.69;1771055;80;21201;-35
2020/12/15 14:00:05;;;;;;;188.50;61.55;;;;;;;1.46;84.54;100850.03;1715078;80;21164;-34
2020/12/15 14:02:32;;;;;;;200.20;64.95;;;;;;;1.44;84.58;100851.63;1751930;80;21179;-37
2020/12/15 14:05:01;;;;;;;192.85;59.15;;;;;;;1.41;84.64;100858.38;1768271;80;21154;-34
2020/12/15 14:07:34;;;;;;;209.67;64.50;;;;;;;1.38;84.79;100860.80;1737348;81;21177;-34
2020/12/15 14:10:00;;;;;;;208.63;66.00;;;;;;;1.35;84.90;100858.97;1715439;81;21170;-37
2020/12/15 14:12:28;;;;;;;229.32;69.75;;;;;;;1.31;85.10;100861.80;1727229;83;21308;-34
2020/12/15 14:14:57;;;;;;;239.95;71.70;;;;;;;1.29;85.25;100862.15;1706274;81;21178;-34
2020/12/15 14:17:25;;;;;;;237.90;68.17;;;;;;;1.26;85.44;100861.99;1713627;81;21660;-38
2020/12/15 14:19:54;;;;;;;254.15;66.37;;;;;;;1.23;85.62;100860.98;1746447;80;21186;-34
2020/12/15 14:22:22;;;;;;;230.35;66.55;;;;;;;1.22;85.78;100863.97;1695217;83;21174;-34
2020/12/15 14:24:52;;;;;;;204.87;63.15;;;;;;;1.20;85.89;100864.29;1707444;84;21328;-34
2020/12/15 14:27:20;;;;;;;198.93;60.25;;;;;;;1.18;86.06;100870.20;1680461;84;21243;-34
2020/12/15 14:29:48;;;;;;;172.13;55.30;;;;;;;1.15;86.29;100863.19;1660464;85;21155;-37
2020/12/15 14:32:16;;;;;;;179.85;55.78;;;;;;;1.13;86.52;100871.67;1692747;83;21187;-34
2020/12/15 14:34:43;;;;;;;177.10;57.15;;;;;;;1.11;86.67;100875.48;1652521;83;21157;-37
2020/12/15 14:37:12;;;;;;;182.60;56.98;;;;;;;1.10;86.85;100872.80;1678718;83;21134;-36
2020/12/15 14:39:40;;;;;;;157.25;54.90;;;;;;;1.09;86.99;100869.34;1707621;83;21198;-37
2020/12/15 14:42:09;;;;;;;166.62;54.45;;;;;;;1.09;87.11;100871.92;1707767;83;21118;-39
2020/12/15 14:44:37;;;;;;;177.40;56.55;;;;;;;1.09;87.22;100873.21;1719376;83;21174;-37
2020/12/15 14:47:06;;;;;;;157.62;51.33;;;;;;;1.10;87.37;100875.38;1664727;83;22131;-36
2020/12/15 14:49:34;;;;;;;145.95;52.08;;;;;;;1.10;87.45;100880.53;1693766;83;21207;-37
2020/12/15 14:52:02;;;;;;;157.27;51.60;;;;;;;1.09;87.61;100873.62;1694244;83;21208;-34
2020/12/15 14:54:31;;;;;;;147.75;50.80;;;;;;;1.10;87.70;100874.97;1721237;83;21163;-36
2020/12/15 14:57:00;;;;;;;138.15;47.60;;;;;;;1.09;87.77;100869.75;1697586;82;21233;-39
2020/12/15 14:59:28;;;;;;;156.65;52.27;;;;;;;1.09;87.94;100876.20;1709961;82;21910;-34
2020/12/15 15:01:57;;;;;;;137.30;49.65;;;;;;;1.10;88.02;100863.38;1720592;82;21222;-38
2020/12/15 15:04:25;;;;;;;139.43;51.92;;;;;;;1.11;88.12;100874.19;1743850;82;21193;-38
2020/12/15 15:06:53;;;;;;;155.48;52.55;;;;;;;1.13;88.12;100879.00;1719762;82;21232;-40
2020/12/15 15:09:23;;;;;;;135.55;48.08;;;;;;;1.13;88.18;100875.13;1692120;83;21171;-36
2020/12/15 15:11:52;;;;;;;143.02;49.48;;;;;;;1.14;88.14;100882.05;1720029;83;21217;-34
2020/12/15 15:14:20;;;;;;;132.72;46.13;;;;;;;1.13;88.16;100875.13;1693501;83;21630;-37
2020/12/15 15:16:52;;;;;;;143.15;47.95;;;;;;;1.14;88.20;100877.30;1719377;83;21599;-33
2020/12/15 15:19:21;;;;;;;135.70;46.20;;;;;;;1.13;88.19;100884.16;1693267;83;21136;-39
2020/12/15 15:21:49;;;;;;;140.15;48.85;;;;;;;1.12;88.29;100882.39;1693508;83;21678;-39
2020/12/15 15:24:17;;;;;;;142.50;48.58;;;;;;;1.13;88.31;100884.16;1688045;83;21337;-39
2020/12/15 15:26:45;;;;;;;131.43;47.53;;;;;;;1.12;88.38;100883.68;1692201;83;21270;-35
2020/12/15 15:29:13;;;;;;;142.75;46.90;;;;;;;1.11;88.43;100884.50;1661504;85;21754;-39
2020/12/15 15:31:41;;;;;;;140.15;48.13;;;;;;;1.11;88.50;100888.77;1668240;84;21218;-36
2020/12/15 15:34:09;;;;;;;140.85;46.25;;;;;;;1.10;88.60;100886.98;1702261;83;21171;-35
2020/12/15 15:36:40;;;;;;;150.27;49.77;;;;;;;1.10;88.70;100887.86;1718047;82;21141;-35
2020/12/15 15:39:11;;;;;;;147.82;50.00;;;;;;;1.12;88.72;100896.57;1715821;83;21181;-38
2020/12/15 15:41:43;;;;;;;150.80;49.83;;;;;;;1.12;88.76;100891.82;1724010;80;21221;-35
2020/12/15 15:44:11;;;;;;;152.62;51.05;;;;;;;1.12;88.80;100894.40;1747894;82;21171;-38
2020/12/15 15:46:39;;;;;;;141.43;48.65;;;;;;;1.12;88.84;100897.86;1719695;82;21143;-35
2020/12/15 15:49:09;;;;;;;144.10;51.53;;;;;;;1.12;88.90;100898.27;1716859;82;21175;-38
2020/12/15 15:51:37;;;;;;;124.35;47.48;;;;;;;1.12;88.96;100909.45;1719325;82;21183;-38
2020/12/15 15:54:07;;;;;;;144.35;50.55;;;;;;;1.12;89.00;100912.44;1748820;81;21320;-35
2020/12/15 15:56:42;;;;;;;149.15;50.63;;;;;;;1.12;89.04;100918.48;1719219;82;21198;-38
2020/12/15 15:59:09;;;;;;;137.77;49.10;;;;;;;1.12;89.07;100915.90;1748980;82;21179;-38
2020/12/15 16:01:38;;;;;;;143.47;47.67;;;;;;;1.12;89.10;100922.34;1719703;82;21183;-35
2020/12/15 16:04:07;;;;;;;133.20;47.40;;;;;;;1.09;89.15;100918.31;1719455;80;21158;-35
2020/12/15 16:06:35;;;;;;;140.40;49.35;;;;;;;1.11;89.22;100927.44;1724364;82;21655;-35
2020/12/15 16:09:05;;;;;;;135.82;47.67;;;;;;;1.11;89.27;100929.60;1724495;82;21215;-36
2020/12/15 16:11:33;;;;;;;123.45;44.75;;;;;;;1.11;89.28;100929.60;1724471;82;21610;-35
2020/12/15 16:14:03;;;;;;;124.15;46.23;;;;;;;1.11;89.33;100941.20;1668271;83;21188;-38
